Time;durP1;ratioP1;P1;durP2;ratioP2;P2;SDS_P1;SDS_P2;PMS_P1;PMS_P2;Temp;Humidity;BMP_temperature;BMP_pressure;BME280_temperature;BME280_humidity;BME280_pressure;Samples;Min_cycle;Max_cycle;Signal;HPM_P1;HPM_P2
2022/11/16 00:00:09;;;;;;;;;;;;;;;24.51;47.27;93047.88;4965996;28;7131;-60
2022/11/16 00:02:35;;;;;;;;;;;;;;;24.51;47.20;93051.34;4970621;28;6875;-60
2022/11/16 00:05:01;;;;;;;;;;;;;;;24.51;47.13;93045.13;4957648;28;7129;-60
2022/11/16 00:07:28;;;;;;;;;;;;;;;24.49;47.86;93039.44;4957894;28;7620;-60
2022/11/16 00:10:02;;;;;;;;;;;;;;;24.50;47.55;93033.38;4964688;28;9392;-61
2022/11/16 00:12:41;;;;;;;;;;;;;;;24.51;47.46;93045.84;4950488;28;7020;-60
2022/11/16 00:15:19;;;;;;;;;;;;;;;24.48;47.39;93033.19;4972884;28;7325;-61
2022/11/16 00:17:54;;;;;;;;;;;;;;;24.49;47.41;93037.41;4975413;28;7204;-60
2022/11/16 00:20:27;;;;;;;;;;;;;;;24.51;47.37;93034.13;4974918;28;9566;-60
2022/11/16 00:23:30;;;;;;;;;;;;;;;24.48;47.78;93035.94;4960438;28;8497;-60
2022/11/16 00:26:29;;;;;;;;;;;;;;;24.48;47.27;93032.44;4907389;29;7265;-60
2022/11/16 00:29:28;;;;;;;;;;;;;;;24.49;47.94;93037.41;4911263;29;7667;-60
2022/11/16 00:31:54;;;;;;;;;;;;;;;24.50;47.56;93044.38;4907225;29;8486;-60
2022/11/16 00:34:32;;;;;;;;;;;;;;;24.51;47.08;93045.13;4902007;29;7277;-60
2022/11/16 00:37:00;;;;;;;;;;;;;;;24.48;47.18;93052.44;4890305;29;8841;-60
2022/11/16 00:39:33;;;;;;;;;;;;;;;24.45;47.62;93042.50;4909887;29;9071;-60
2022/11/16 00:42:00;;;;;;;;;;;;;;;24.47;47.83;93050.94;4891831;29;7068;-61
2022/11/16 00:44:27;;;;;;;;;;;;;;;24.49;47.34;93053.16;4899195;29;9032;-60
2022/11/16 00:47:05;;;;;;;;;;;;;;;24.49;47.12;93064.88;4894673;29;8988;-60
2022/11/16 00:49:32;;;;;;;;;;;;;;;24.49;47.10;93072.41;4908662;29;7041;-60
2022/11/16 00:51:58;;;;;;;;;;;;;;;24.51;47.47;93075.34;4906443;29;7254;-60
2022/11/16 00:54:24;;;;;;;;;;;;;;;24.49;47.69;93073.13;4906413;29;7084;-60
2022/11/16 00:56:58;;;;;;;;;;;;;;;24.51;47.54;93078.81;4889039;29;9481;-60
2022/11/16 00:59:25;;;;;;;;;;;;;;;24.52;47.67;93085.81;4873089;29;9438;-60
2022/11/16 01:01:54;;;;;;;;;;;;;;;24.51;48.15;93089.81;4841360;29;7243;-60
2022/11/16 01:04:22;;;;;;;;;;;;;;;24.48;47.56;93085.41;4881361;29;9096;-60
2022/11/16 01:06:50;;;;;;;;;;;;;;;24.46;47.89;93093.44;4920192;28;7284;-60
2022/11/16 01:09:27;;;;;;;;;;;;;;;24.45;47.19;93096.72;4973518;28;7216;-60
2022/11/16 01:12:12;;;;;;;;;;;;;;;24.47;47.25;93110.66;4957511;28;7199;-60
2022/11/16 01:14:55;;;;;;;;;;;;;;;24.47;47.58;93105.91;4974592;28;9337;-61
2022/11/16 01:17:31;;;;;;;;;;;;;;;24.47;47.65;93099.66;4957276;28;9393;-61
2022/11/16 01:20:01;;;;;;;;;;;;;;;24.46;47.55;93112.69;4974484;28;7067;-60
2022/11/16 01:22:31;;;;;;;;;;;;;;;24.44;47.66;93107.00;4973228;28;7406;-60
2022/11/16 01:25:00;;;;;;;;;;;;;;;24.47;47.09;93118.91;4951688;28;7102;-60
2022/11/16 01:27:28;;;;;;;;;;;;;;;24.47;47.57;93121.66;4957407;28;9417;-61
2022/11/16 01:29:58;;;;;;;;;;;;;;;24.47;47.64;93121.66;4973533;28;7674;-60
2022/11/16 01:32:34;;;;;;;;;;;;;;;24.47;47.05;93119.66;4965549;28;7326;-60
2022/11/16 01:35:30;;;;;;;;;;;;;;;24.47;47.17;93124.41;4958384;28;7127;-60
2022/11/16 01:38:03;;;;;;;;;;;;;;;24.46;47.31;93126.44;4957287;28;7205;-61
2022/11/16 01:40:36;;;;;;;;;;;;;;;24.47;47.03;93127.16;4974508;28;9464;-61
2022/11/16 01:43:21;;;;;;;;;;;;;;;24.46;47.53;93129.19;4972041;28;10549;-60
2022/11/16 01:45:49;;;;;;;;;;;;;;;24.45;47.31;93133.19;4961252;28;8178;-60
2022/11/16 01:48:29;;;;;;;;;;;;;;;24.45;47.17;93141.44;4953629;28;7038;-60
2022/11/16 01:50:57;;;;;;;;;;;;;;;24.44;47.67;93139.97;4973339;28;7129;-61
2022/11/16 01:53:29;;;;;;;;;;;;;;;24.46;47.45;93137.44;4955059;28;9792;-60
2022/11/16 01:56:04;;;;;;;;;;;;;;;24.47;47.59;93144.38;4975165;28;7536;-60
2022/11/16 01:58:36;;;;;;;;;;;;;;;24.46;47.91;93153.91;4969276;28;8995;-60
2022/11/16 02:01:05;;;;;;;;;;;;;;;24.46;47.55;93161.41;4971387;28;7228;-60
2022/11/16 02:03:35;;;;;;;;;;;;;;;24.46;47.22;93161.41;4953939;28;10002;-60
2022/11/16 02:06:40;;;;;;;;;;;;;;;24.48;47.26;93164.38;4969172;28;9678;-60
2022/11/16 02:12:40;;;;;;;;;;;;;;;24.46;47.45;93159.41;4974295;28;7343;-60
2022/11/16 02:15:12;;;;;;;;;;;;;;;24.45;47.84;93168.91;4972488;28;7043;-60
2022/11/16 02:17:50;;;;;;;;;;;;;;;24.45;47.02;93179.16;4973668;28;7024;-61
2022/11/16 02:20:40;;;;;;;;;;;;;;;24.49;47.48;93180.31;4957072;28;7732;-60
2022/11/16 02:23:44;;;;;;;;;;;;;;;24.45;47.66;93163.41;4956467;28;7156;-60
2022/11/16 02:29:38;;;;;;;;;;;;;;;24.45;47.60;93157.19;4972786;28;7042;-60
2022/11/16 02:32:20;;;;;;;;;;;;;;;24.43;48.00;93151.47;4966875;28;7193;-61
2022/11/16 02:35:10;;;;;;;;;;;;;;;24.42;48.04;93145.25;4968121;28;7066;-61
2022/11/16 02:38:06;;;;;;;;;;;;;;;24.42;47.60;93148.00;4970120;28;7120;-60
2022/11/16 02:40:38;;;;;;;;;;;;;;;24.44;47.25;93147.47;4950478;28;9286;-60
2022/11/16 02:43:26;;;;;;;;;;;;;;;24.41;47.48;93146.53;4953085;28;7045;-60
2022/11/16 02:46:07;;;;;;;;;;;;;;;24.42;47.17;93145.25;4966925;28;7085;-61
2022/11/16 02:48:42;;;;;;;;;;;;;;;24.41;47.61;93152.03;4967519;28;7637;-60
2022/11/16 02:51:10;;;;;;;;;;;;;;;24.41;47.64;93146.53;4966983;28;9399;-60
2022/11/16 02:54:08;;;;;;;;;;;;;;;24.41;47.48;93151.28;4951406;28;7024;-61
2022/11/16 02:57:01;;;;;;;;;;;;;;;24.42;47.26;93136.28;4959552;28;10178;-60
2022/11/16 02:59:40;;;;;;;;;;;;;;;24.42;47.17;93141.78;4966746;28;9073;-60
2022/11/16 03:02:24;;;;;;;;;;;;;;;24.41;47.35;93137.53;4955091;28;9097;-60
2022/11/16 03:05:13;;;;;;;;;;;;;;;24.41;47.97;93130.03;4967795;28;7553;-61
2022/11/16 03:08:01;;;;;;;;;;;;;;;24.40;47.65;93128.53;4965262;28;7421;-60
2022/11/16 03:13:18;;;;;;;;;;;;;;;24.39;47.69;93127.09;4966446;28;7300;-60
2022/11/16 03:15:48;;;;;;;;;;;;;;;24.39;47.41;93112.59;4960413;28;7445;-61
2022/11/16 03:18:18;;;;;;;;;;;;;;;24.39;47.61;93118.09;4966985;28;7078;-61
2022/11/16 03:20:51;;;;;;;;;;;;;;;24.40;47.46;93127.81;4963445;28;10054;-61
2022/11/16 03:23:17;;;;;;;;;;;;;;;24.40;47.33;93119.59;4952179;28;7048;-61
2022/11/16 03:25:54;;;;;;;;;;;;;;;24.41;47.64;93118.28;4967195;28;7031;-61
2022/11/16 03:28:53;;;;;;;;;;;;;;;24.40;47.20;93112.06;4952483;28;7232;-61
2022/11/16 03:31:46;;;;;;;;;;;;;;;24.39;47.19;93104.34;4968675;28;7275;-61
2022/11/16 03:34:21;;;;;;;;;;;;;;;24.37;47.56;93101.41;4945141;28;6869;-61
2022/11/16 03:36:51;;;;;;;;;;;;;;;24.36;47.46;93102.69;4969134;28;7026;-61
2022/11/16 03:39:30;;;;;;;;;;;;;;;24.38;47.86;93100.13;4966881;28;7287;-61
2022/11/16 03:42:03;;;;;;;;;;;;;;;24.38;47.57;93098.09;4955664;28;7384;-61
2022/11/16 03:44:37;;;;;;;;;;;;;;;24.38;47.99;93089.88;4954294;28;9406;-61
2022/11/16 03:47:04;;;;;;;;;;;;;;;24.39;48.04;93098.84;4976249;28;7060;-60
2022/11/16 03:49:37;;;;;;;;;;;;;;;24.37;47.54;93102.16;4958325;28;9376;-60
2022/11/16 03:52:06;;;;;;;;;;;;;;;24.38;47.98;93102.88;4959097;28;10651;-61
2022/11/16 03:54:33;;;;;;;;;;;;;;;24.37;47.31;93107.63;4953816;28;10536;-61
2022/11/16 03:57:19;;;;;;;;;;;;;;;24.37;47.10;93115.88;4963074;28;8441;-60
2022/11/16 03:59:47;;;;;;;;;;;;;;;24.36;47.33;93106.16;4974872;28;8230;-61
2022/11/16 04:02:16;;;;;;;;;;;;;;;24.36;47.56;93111.66;4975294;28;6976;-61
2022/11/16 04:24:33;;;;;;;;;;;;;;;24.37;47.70;93104.16;4970186;28;7309;-61
2022/11/16 04:29:59;;;;;;;;;;;;;;;24.35;47.35;93090.94;4973888;28;7877;-61
2022/11/16 04:38:12;;;;;;;;;;;;;;;24.36;47.74;93094.44;4911548;29;9496;-60
2022/11/16 04:40:56;;;;;;;;;;;;;;;24.36;47.18;93089.66;4910815;29;7317;-61
2022/11/16 04:43:42;;;;;;;;;;;;;;;24.36;47.93;93094.44;4914723;29;7281;-61
2022/11/16 04:49:05;;;;;;;;;;;;;;;24.35;47.42;93082.69;4908420;29;7065;-61
2022/11/16 04:51:31;;;;;;;;;;;;;;;24.36;47.26;93086.19;4896682;29;7062;-61
2022/11/16 04:54:02;;;;;;;;;;;;;;;24.36;47.69;93083.44;4892514;29;7067;-61
2022/11/16 04:56:30;;;;;;;;;;;;;;;24.36;47.77;93089.66;4909072;29;9154;-61
2022/11/16 04:58:58;;;;;;;;;;;;;;;24.35;47.25;93092.94;4898705;29;7917;-61
2022/11/16 05:04:16;;;;;;;;;;;;;;;24.37;47.81;93087.66;4913410;29;7051;-61
2022/11/16 05:06:43;;;;;;;;;;;;;;;24.37;47.31;93087.66;4899558;29;8973;-61
2022/11/16 05:09:18;;;;;;;;;;;;;;;24.35;47.29;93076.47;4911978;29;7169;-61
2022/11/16 05:11:52;;;;;;;;;;;;;;;24.33;47.35;93077.00;4894580;29;7031;-61
2022/11/16 05:14:18;;;;;;;;;;;;;;;24.34;47.31;93080.47;4894430;29;7098;-61
2022/11/16 05:17:01;;;;;;;;;;;;;;;24.33;47.32;93076.25;4882518;29;9085;-60
2022/11/16 05:22:38;;;;;;;;;;;;;;;24.32;47.55;93072.78;4896421;29;8371;-61
2022/11/16 05:25:33;;;;;;;;;;;;;;;24.33;46.85;93074.25;4887147;29;9034;-61
2022/11/16 05:28:09;;;;;;;;;;;;;;;24.32;47.30;93070.03;4897768;29;8906;-61
2022/11/16 05:31:05;;;;;;;;;;;;;;;24.34;48.03;93072.22;4875694;29;9479;-61
2022/11/16 05:33:42;;;;;;;;;;;;;;;24.33;47.66;93068.03;4803787;29;7308;-61
2022/11/16 05:36:08;;;;;;;;;;;;;;;24.34;47.03;93072.22;4801416;29;7240;-61
2022/11/16 05:38:43;;;;;;;;;;;;;;;24.33;47.26;93074.25;4796343;29;7257;-61
2022/11/16 05:41:19;;;;;;;;;;;;;;;24.33;47.12;93071.50;4809852;29;7111;-61
2022/11/16 05:43:48;;;;;;;;;;;;;;;24.34;47.34;93083.97;4812795;29;7332;-61
2022/11/16 05:46:13;;;;;;;;;;;;;;;24.35;47.41;93081.97;4829384;29;7850;-61
2022/11/16 05:48:43;;;;;;;;;;;;;;;24.34;47.00;93081.22;4819781;29;7049;-61
2022/11/16 05:51:13;;;;;;;;;;;;;;;24.35;47.51;93084.72;4831338;29;7043;-61
2022/11/16 05:53:39;;;;;;;;;;;;;;;24.35;47.61;93082.69;4827565;29;7542;-60
2022/11/16 05:56:06;;;;;;;;;;;;;;;24.36;47.63;93086.19;4822939;29;7277;-61
2022/11/16 05:58:36;;;;;;;;;;;;;;;24.34;47.71;93092.22;4803171;29;10069;-61
2022/11/16 06:01:02;;;;;;;;;;;;;;;24.38;47.61;93103.59;4804287;29;7216;-61
2022/11/16 06:03:29;;;;;;;;;;;;;;;24.42;47.31;93101.28;4835704;29;7264;-61
2022/11/16 06:06:05;;;;;;;;;;;;;;;24.44;47.25;93089.75;4847308;29;7350;-61
2022/11/16 06:08:32;;;;;;;;;;;;;;;24.48;47.45;93096.41;4840987;29;9408;-61
2022/11/16 06:11:03;;;;;;;;;;;;;;;24.53;46.48;93100.31;4944353;28;7224;-61
2022/11/16 06:13:30;;;;;;;;;;;;;;;24.56;46.38;93101.97;4952195;28;7106;-61
2022/11/16 06:15:59;;;;;;;;;;;;;;;24.60;46.96;93103.09;4960668;28;7165;-61
2022/11/16 06:18:26;;;;;;;;;;;;;;;24.62;46.63;93106.06;4973507;28;8284;-61
2022/11/16 06:21:06;;;;;;;;;;;;;;;24.64;46.87;93108.28;4972061;28;7358;-61
2022/11/16 06:23:50;;;;;;;;;;;;;;;24.60;46.54;93113.34;4970123;28;9441;-61
2022/11/16 06:26:19;;;;;;;;;;;;;;;24.58;46.68;93121.41;4953423;28;7205;-60
2022/11/16 06:28:46;;;;;;;;;;;;;;;24.58;46.81;93113.91;4947314;28;7219;-61
2022/11/16 06:31:16;;;;;;;;;;;;;;;24.58;46.78;93116.66;4952888;28;7257;-61
2022/11/16 06:33:43;;;;;;;;;;;;;;;24.53;46.45;93120.25;4951328;28;6981;-61
2022/11/16 06:36:10;;;;;;;;;;;;;;;24.47;47.08;93116.91;4970119;28;7580;-61
2022/11/16 06:38:39;;;;;;;;;;;;;;;24.45;46.73;93116.69;4965568;28;8792;-61
2022/11/16 06:41:09;;;;;;;;;;;;;;;24.50;46.79;93117.84;4962402;28;7149;-61
2022/11/16 06:43:35;;;;;;;;;;;;;;;24.49;46.99;93125.34;4966014;28;9126;-61
2022/11/16 06:46:02;;;;;;;;;;;;;;;24.54;46.50;93118.25;4959526;28;6994;-61
2022/11/16 06:48:34;;;;;;;;;;;;;;;24.56;46.63;93130.19;4969231;28;8482;-61
2022/11/16 06:51:08;;;;;;;;;;;;;;;24.58;47.07;93122.16;4972170;28;8783;-61
2022/11/16 06:53:36;;;;;;;;;;;;;;;24.59;46.65;93118.13;4973215;28;9807;-61
2022/11/16 06:56:06;;;;;;;;;;;;;;;24.62;46.24;93122.56;4955947;28;6969;-61
2022/11/16 06:58:54;;;;;;;;;;;;;;;24.63;47.12;93121.28;4972930;28;7287;-61
2022/11/16 07:01:20;;;;;;;;;;;;;;;24.62;46.07;93117.06;4970151;28;7427;-61
2022/11/16 07:03:48;;;;;;;;;;;;;;;24.65;46.55;93124.25;4970188;28;9437;-61
2022/11/16 07:06:26;;;;;;;;;;;;;;;24.69;46.41;93126.66;4971086;28;9409;-61
2022/11/16 07:08:54;;;;;;;;;;;;;;;24.69;46.17;93126.66;4946097;28;9278;-61
2022/11/16 07:11:24;;;;;;;;;;;;;;;24.67;46.71;93140.94;4971603;28;6932;-61
2022/11/16 07:14:16;;;;;;;;;;;;;;;24.66;46.87;93133.94;4971211;28;7157;-61
2022/11/16 07:17:03;;;;;;;;;;;;;;;24.67;46.90;93140.94;4895258;29;7043;-60
2022/11/16 07:19:39;;;;;;;;;;;;;;;24.67;46.84;93140.19;4891400;29;7053;-61
2022/11/16 07:22:05;;;;;;;;;;;;;;;24.67;46.97;93146.44;4897629;29;7354;-61
2022/11/16 07:24:42;;;;;;;;;;;;;;;24.68;47.21;93142.41;4896303;29;7738;-61
2022/11/16 07:27:10;;;;;;;;;;;;;;;24.68;46.41;93136.19;4890431;29;7272;-60
2022/11/16 07:29:46;;;;;;;;;;;;;;;24.68;46.97;93147.91;4898176;29;7908;-61
2022/11/16 07:32:23;;;;;;;;;;;;;;;24.68;47.36;93147.91;4878593;29;9168;-60
2022/11/16 07:35:01;;;;;;;;;;;;;;;24.69;46.59;93148.66;4890242;29;9309;-61
2022/11/16 07:37:44;;;;;;;;;;;;;;;24.69;47.42;93154.91;4896089;29;10037;-61
2022/11/16 07:40:14;;;;;;;;;;;;;;;24.69;46.94;93159.66;4876571;29;9123;-61
2022/11/16 07:42:40;;;;;;;;;;;;;;;24.67;47.13;93151.94;4894296;29;7031;-61
2022/11/16 07:45:08;;;;;;;;;;;;;;;24.66;46.86;93150.44;4875730;29;9653;-61
2022/11/16 07:47:51;;;;;;;;;;;;;;;24.64;47.34;93158.50;4887748;29;9397;-61
2022/11/16 07:50:26;;;;;;;;;;;;;;;24.62;47.53;93158.28;4889989;29;7099;-61
2022/11/16 07:53:03;;;;;;;;;;;;;;;24.62;47.87;93160.31;4900859;28;7230;-61
2022/11/16 07:55:32;;;;;;;;;;;;;;;24.64;47.52;93169.50;4933701;28;10523;-61
2022/11/16 07:57:58;;;;;;;;;;;;;;;24.71;47.46;93170.84;4962506;28;8773;-61
2022/11/16 08:00:26;;;;;;;;;;;;;;;24.89;47.46;93177.47;4946793;28;7404;-61
2022/11/16 08:02:54;;;;;;;;;;;;;;;25.01;46.66;93175.97;4964131;28;7076;-61
2022/11/16 08:05:20;;;;;;;;;;;;;;;25.07;46.72;93182.06;4966703;28;7085;-61
2022/11/16 08:07:48;;;;;;;;;;;;;;;25.11;46.74;93179.72;4952390;28;8430;-61
2022/11/16 08:10:17;;;;;;;;;;;;;;;25.10;46.78;93178.25;4945763;28;9501;-61
2022/11/16 08:12:53;;;;;;;;;;;;;;;25.04;47.23;93177.63;4947887;28;7267;-62
2022/11/16 08:15:22;;;;;;;;;;;;;;;24.92;47.73;93170.91;4950263;28;7039;-61
2022/11/16 08:17:50;;;;;;;;;;;;;;;24.85;47.69;93177.81;4952881;28;7011;-61
2022/11/16 08:20:17;;;;;;;;;;;;;;;24.80;47.40;93180.69;4954118;28;7248;-61
2022/11/16 08:22:49;;;;;;;;;;;;;;;24.75;47.48;93176.06;4971502;28;9057;-61
2022/11/16 08:25:27;;;;;;;;;;;;;;;24.75;47.87;93173.31;4950571;28;9409;-61
2022/11/16 08:27:57;;;;;;;;;;;;;;;24.73;47.64;93175.84;4959823;28;7349;-61
2022/11/16 08:30:25;;;;;;;;;;;;;;;24.70;48.09;93178.38;4972139;28;7108;-61
2022/11/16 08:32:57;;;;;;;;;;;;;;;24.70;48.14;93170.13;4961241;28;7191;-61
2022/11/16 08:35:42;;;;;;;;;;;;;;;24.72;47.90;93169.59;4975777;28;8360;-61
2022/11/16 08:38:13;;;;;;;;;;;;;;;24.68;48.73;93169.19;4947953;28;9493;-61
2022/11/16 08:40:45;;;;;;;;;;;;;;;24.64;47.94;93169.50;4954711;28;7462;-61
2022/11/16 08:43:25;;;;;;;;;;;;;;;24.63;48.14;93167.28;4974032;28;8033;-61
2022/11/16 08:45:54;;;;;;;;;;;;;;;24.64;47.96;93175.00;4969865;28;9822;-61
2022/11/16 08:48:23;;;;;;;;;;;;;;;24.62;47.63;93177.53;4960377;28;7148;-61
2022/11/16 08:50:51;;;;;;;;;;;;;;;24.60;48.19;93162.84;4962782;28;9387;-62
2022/11/16 08:53:16;;;;;;;;;;;;;;;24.60;48.13;93166.34;4956633;28;9167;-61
2022/11/16 08:55:43;;;;;;;;;;;;;;;24.61;47.98;93170.56;4961240;28;7272;-62
2022/11/16 08:58:23;;;;;;;;;;;;;;;24.59;48.44;93170.38;4956528;28;7035;-62
2022/11/16 09:00:50;;;;;;;;;;;;;;;24.61;48.00;93172.59;4973463;28;7271;-62
2022/11/16 09:03:16;;;;;;;;;;;;;;;24.63;48.76;93170.78;4974338;28;9008;-61
2022/11/16 09:05:45;;;;;;;;;;;;;;;24.65;48.08;93165.47;4974411;28;7406;-61
2022/11/16 09:08:20;;;;;;;;;;;;;;;24.67;48.24;93167.69;4958053;28;9428;-61
2022/11/16 09:10:47;;;;;;;;;;;;;;;24.71;48.00;93162.59;4953342;28;7316;-61
2022/11/16 09:13:40;;;;;;;;;;;;;;;24.74;47.52;93169.78;4956737;28;7055;-61
2022/11/16 09:16:06;;;;;;;;;;;;;;;24.73;48.16;93177.28;4916787;29;7279;-62
2022/11/16 09:18:34;;;;;;;;;;;;;;;24.77;48.03;93174.25;4920330;29;9031;-61
2022/11/16 09:21:06;;;;;;;;;;;;;;;24.79;47.55;93168.22;4913901;29;7025;-61
2022/11/16 09:23:35;;;;;;;;;;;;;;;24.79;47.43;93157.22;4896397;29;7076;-62
2022/11/16 09:26:04;;;;;;;;;;;;;;;24.82;47.61;93170.63;4916855;29;7304;-62
2022/11/16 09:28:34;;;;;;;;;;;;;;;24.86;47.91;93173.78;4894338;29;6978;-62
2022/11/16 09:31:10;;;;;;;;;;;;;;;24.86;47.50;93167.56;4910179;29;7156;-62
2022/11/16 09:33:47;;;;;;;;;;;;;;;24.90;47.83;93174.22;4896955;29;9083;-61
2022/11/16 09:36:14;;;;;;;;;;;;;;;24.91;47.70;93172.19;4909324;29;7119;-61
2022/11/16 09:38:43;;;;;;;;;;;;;;;24.94;47.70;93174.63;4911478;29;7013;-61
2022/11/16 09:41:43;;;;;;;;;;;;;;;24.97;48.24;93179.03;4913923;29;7271;-62
2022/11/16 09:44:39;;;;;;;;;;;;;;;24.99;48.51;93173.00;4895057;29;7656;-62
2022/11/16 09:47:21;;;;;;;;;;;;;;;24.99;47.51;93173.00;4911803;29;8959;-62
2022/11/16 09:49:53;;;;;;;;;;;;;;;25.01;47.89;93178.72;4900121;29;8580;-61
2022/11/16 09:52:39;;;;;;;;;;;;;;;25.00;48.51;93177.22;4909279;28;7544;-61
2022/11/16 09:55:39;;;;;;;;;;;;;;;25.03;47.72;93176.91;4970280;28;9017;-62
2022/11/16 09:58:28;;;;;;;;;;;;;;;25.06;47.95;93172.31;4963938;28;8784;-61
2022/11/16 10:01:03;;;;;;;;;;;;;;;25.07;47.59;93171.06;4968952;28;7207;-61
2022/11/16 10:03:39;;;;;;;;;;;;;;;25.04;47.99;93175.63;4949864;28;7071;-61
2022/11/16 10:06:20;;;;;;;;;;;;;;;25.04;47.53;93172.88;4961849;28;7140;-61
2022/11/16 10:09:02;;;;;;;;;;;;;;;25.07;47.76;93171.06;4964742;28;9692;-61
2022/11/16 10:15:00;;;;;;;;;;;;;;;25.07;47.63;93177.31;4970474;28;7048;-61
2022/11/16 10:17:41;;;;;;;;;;;;;;;25.07;49.73;93173.81;4967337;28;7069;-62
2022/11/16 10:20:09;;;;;;;;;;;;;;;25.07;50.16;93169.06;4971079;28;7182;-62
2022/11/16 10:23:23;;;;;;;;;;;;;;;25.10;47.89;93164.50;4970295;28;8910;-61
2022/11/16 10:26:11;;;;;;;;;;;;;;;25.12;48.38;93168.16;4967120;28;9602;-61
2022/11/16 10:29:12;;;;;;;;;;;;;;;25.16;47.67;93165.09;4951597;28;7498;-61
2022/11/16 10:31:55;;;;;;;;;;;;;;;25.15;47.57;93160.84;4968709;28;7293;-61
2022/11/16 10:34:27;;;;;;;;;;;;;;;25.12;47.68;93162.66;4971358;28;7310;-61
2022/11/16 10:37:02;;;;;;;;;;;;;;;25.13;47.47;93157.91;4947885;28;7270;-62
2022/11/16 10:39:32;;;;;;;;;;;;;;;25.12;47.88;93161.94;4967030;28;8563;-61
2022/11/16 10:42:09;;;;;;;;;;;;;;;25.14;48.03;93151.13;4956145;28;9325;-61
2022/11/16 10:44:40;;;;;;;;;;;;;;;25.17;47.91;93147.28;4971108;28;7120;-61
2022/11/16 10:47:49;;;;;;;;;;;;;;;25.18;48.04;93143.28;4974154;28;7136;-61
2022/11/16 10:50:21;;;;;;;;;;;;;;;25.18;48.25;93140.53;4884977;29;9052;-61
2022/11/16 10:53:02;;;;;;;;;;;;;;;25.12;47.60;93132.41;4890678;29;7078;-61
2022/11/16 10:55:32;;;;;;;;;;;;;;;25.12;47.99;93123.44;4874610;29;10126;-62
2022/11/16 10:58:03;;;;;;;;;;;;;;;25.06;49.53;93122.81;4889512;29;9813;-62
2022/11/16 11:00:45;;;;;;;;;;;;;;;25.03;49.31;93132.16;4884520;29;7036;-62
2022/11/16 11:03:13;;;;;;;;;;;;;;;25.03;49.60;93115.63;4896759;29;7319;-61
2022/11/16 11:05:52;;;;;;;;;;;;;;;25.02;49.16;93119.66;4887757;29;7222;-61
2022/11/16 11:08:53;;;;;;;;;;;;;;;25.05;50.23;93118.59;4876605;29;8595;-62
2022/11/16 11:14:26;;;;;;;;;;;;;;;25.05;50.06;93135.09;4889451;29;7108;-62
2022/11/16 11:17:11;;;;;;;;;;;;;;;25.06;50.49;93131.81;4883019;29;7379;-61
2022/11/16 11:19:39;;;;;;;;;;;;;;;25.08;50.12;93125.75;4886634;29;7057;-61
2022/11/16 11:22:15;;;;;;;;;;;;;;;25.04;50.18;93126.09;4890972;29;7277;-62
2022/11/16 11:24:47;;;;;;;;;;;;;;;25.06;49.53;93126.28;4874668;29;9385;-62
2022/11/16 11:28:03;;;;;;;;;;;;;;;25.06;50.31;93123.53;4889945;29;9538;-62
2022/11/16 11:30:40;;;;;;;;;;;;;;;25.11;50.31;93116.44;4848641;29;9734;-62
2022/11/16 11:33:11;;;;;;;;;;;;;;;25.12;50.19;93113.13;4834696;29;7033;-61
2022/11/16 11:35:57;;;;;;;;;;;;;;;25.15;49.83;93106.56;4855605;29;7024;-61
2022/11/16 11:38:57;;;;;;;;;;;;;;;25.17;49.16;93104.00;4853670;29;7019;-61
2022/11/16 11:41:33;;;;;;;;;;;;;;;25.19;48.99;93108.97;4852303;29;7241;-62
2022/11/16 11:44:41;;;;;;;;;;;;;;;25.21;49.60;93103.66;4838335;29;7466;-62
2022/11/16 11:47:09;;;;;;;;;;;;;;;25.24;49.54;93097.09;4795481;29;7600;-61
2022/11/16 11:49:52;;;;;;;;;;;;;;;25.24;48.93;93094.34;4802204;29;7063;-61
2022/11/16 11:52:48;;;;;;;;;;;;;;;25.27;48.75;93094.00;4801429;29;7008;-62
2022/11/16 11:55:23;;;;;;;;;;;;;;;25.29;49.15;93094.19;4787259;29;7043;-63
2022/11/16 11:58:10;;;;;;;;;;;;;;;25.34;48.57;93093.31;4784058;29;7027;-61
2022/11/16 12:00:55;;;;;;;;;;;;;;;25.34;49.50;93089.81;4802326;29;7061;-61
2022/11/16 12:03:38;;;;;;;;;;;;;;;25.35;49.17;93092.06;4802034;29;7299;-61
2022/11/16 12:06:10;;;;;;;;;;;;;;;25.38;49.07;93079.22;4811886;29;7129;-61
2022/11/16 12:08:58;;;;;;;;;;;;;;;25.42;48.39;93077.59;4853115;29;7246;-61
2022/11/16 12:12:12;;;;;;;;;;;;;;;25.40;48.99;93077.38;4852292;29;7255;-61
2022/11/16 12:15:07;;;;;;;;;;;;;;;25.38;48.42;93084.72;4815128;29;7233;-61
2022/11/16 12:17:43;;;;;;;;;;;;;;;25.40;48.96;93084.94;4803783;29;7128;-61
2022/11/16 12:20:27;;;;;;;;;;;;;;;25.40;48.43;93082.16;4806911;29;9381;-61
2022/11/16 12:23:05;;;;;;;;;;;;;;;25.36;48.87;93088.00;4833832;29;6999;-61
2022/11/16 12:25:57;;;;;;;;;;;;;;;25.35;48.62;93086.53;4930238;29;9234;-61
2022/11/16 12:28:25;;;;;;;;;;;;;;;25.35;48.69;93081.03;4910906;28;9031;-61
2022/11/16 12:31:13;;;;;;;;;;;;;;;25.35;48.35;93077.53;4920404;29;7686;-61
2022/11/16 12:34:00;;;;;;;;;;;;;;;25.34;48.01;93089.81;4920850;29;7315;-61
2022/11/16 12:36:46;;;;;;;;;;;;;;;25.35;48.85;93080.28;4908815;28;9070;-61
2022/11/16 12:39:33;;;;;;;;;;;;;;;25.39;48.88;93066.94;4921782;29;9035;-61
2022/11/16 12:42:14;;;;;;;;;;;;;;;25.38;47.82;93068.22;4925897;29;9296;-61
2022/11/16 12:45:00;;;;;;;;;;;;;;;25.35;48.40;93063.78;4936504;28;9542;-61
2022/11/16 12:48:01;;;;;;;;;;;;;;;25.37;48.53;93061.22;4923906;29;8843;-61
2022/11/16 12:50:59;;;;;;;;;;;;;;;25.40;48.65;93065.66;4949244;28;9372;-61
2022/11/16 12:54:02;;;;;;;;;;;;;;;25.41;48.09;93056.84;4971933;28;7539;-61
2022/11/16 12:56:50;;;;;;;;;;;;;;;25.47;48.25;93053.97;4972038;28;7227;-61
2022/11/16 12:59:44;;;;;;;;;;;;;;;25.53;47.61;93051.81;4936687;28;9355;-61
2022/11/16 13:02:27;;;;;;;;;;;;;;;25.48;48.04;93043.69;4948662;28;7464;-61
2022/11/16 13:05:18;;;;;;;;;;;;;;;25.47;47.83;93034.69;4972320;28;7035;-61
2022/11/16 13:07:52;;;;;;;;;;;;;;;25.49;48.64;93037.63;4969946;28;6992;-61
2022/11/16 13:10:30;;;;;;;;;;;;;;;25.48;48.29;93025.16;4957589;28;7104;-61
2022/11/16 13:13:20;;;;;;;;;;;;;;;25.52;47.57;93017.28;4956797;28;9065;-61
2022/11/16 13:15:56;;;;;;;;;;;;;;;25.49;47.73;93021.13;4949367;28;8770;-61
2022/11/16 13:18:28;;;;;;;;;;;;;;;25.52;47.86;93011.03;4972887;28;7931;-61
2022/11/16 13:20:59;;;;;;;;;;;;;;;25.63;48.01;93007.97;4972821;28;7091;-61
2022/11/16 13:23:55;;;;;;;;;;;;;;;25.68;47.26;93007.84;4972535;28;9046;-61
2022/11/16 13:26:37;;;;;;;;;;;;;;;25.74;47.29;93008.41;4950993;28;7292;-61
2022/11/16 13:29:41;;;;;;;;;;;;;;;25.78;47.27;93002.53;4972752;28;7093;-61
2022/11/16 13:32:26;;;;;;;;;;;;;;;25.75;47.49;92998.84;4954793;28;7308;-61
2022/11/16 13:34:59;;;;;;;;;;;;;;;25.72;48.17;93001.97;4949850;28;9738;-61
2022/11/16 13:37:37;;;;;;;;;;;;;;;25.69;47.34;92992.03;4971109;28;7373;-61
2022/11/16 13:40:03;;;;;;;;;;;;;;;25.67;47.34;92991.84;4972652;28;6876;-61
2022/11/16 13:42:33;;;;;;;;;;;;;;;25.63;47.56;92978.44;4973180;28;9429;-61
2022/11/16 13:45:21;;;;;;;;;;;;;;;25.61;48.35;92974.75;4973604;28;7282;-61
2022/11/16 13:47:54;;;;;;;;;;;;;;;25.60;47.46;92967.78;4954409;28;7623;-61
2022/11/16 13:50:32;;;;;;;;;;;;;;;25.58;48.04;92968.31;4971115;28;7201;-61
2022/11/16 13:53:11;;;;;;;;;;;;;;;25.58;47.79;92967.59;4966757;28;7590;-61
2022/11/16 13:55:45;;;;;;;;;;;;;;;25.58;47.64;92962.81;4969182;28;9402;-61
2022/11/16 13:58:20;;;;;;;;;;;;;;;25.60;47.86;92976.03;4950140;28;7235;-61
2022/11/16 14:01:09;;;;;;;;;;;;;;;25.58;47.79;92978.59;4964346;28;9632;-61
2022/11/16 14:03:40;;;;;;;;;;;;;;;25.61;47.94;92975.50;4969917;28;7063;-62
2022/11/16 14:06:18;;;;;;;;;;;;;;;25.60;48.28;92979.50;4967952;28;7265;-61
2022/11/16 14:08:51;;;;;;;;;;;;;;;25.65;47.58;92991.66;4950015;28;9368;-61
2022/11/16 14:11:36;;;;;;;;;;;;;;;25.65;47.46;92973.13;4970156;28;7208;-61
2022/11/16 14:14:30;;;;;;;;;;;;;;;25.66;47.10;92974.59;4962059;28;7507;-61
2022/11/16 14:16:59;;;;;;;;;;;;;;;25.67;47.24;92967.81;4971945;28;7232;-61
2022/11/16 14:19:46;;;;;;;;;;;;;;;25.70;47.36;92971.47;4957529;28;7510;-61
2022/11/16 14:23:01;;;;;;;;;;;;;;;25.71;47.70;92972.97;4965160;28;7328;-61
2022/11/16 14:25:59;;;;;;;;;;;;;;;25.69;47.45;92970.75;4866937;29;7121;-61
2022/11/16 14:28:52;;;;;;;;;;;;;;;25.77;47.96;92966.00;4853072;29;9106;-61
2022/11/16 14:31:29;;;;;;;;;;;;;;;25.79;47.30;92965.47;4867567;29;7071;-61
2022/11/16 14:33:59;;;;;;;;;;;;;;;25.86;46.93;92965.47;4870643;29;7021;-61
2022/11/16 14:36:44;;;;;;;;;;;;;;;25.89;46.88;92961.63;4876866;29;7461;-61
2022/11/16 14:39:39;;;;;;;;;;;;;;;25.85;46.61;92941.97;4876332;29;7123;-62
2022/11/16 14:42:24;;;;;;;;;;;;;;;25.89;47.57;92949.88;4855143;29;7227;-61